createdAt,value
2024-01-06T00:00:57.046Z,0.00
2024-01-06T00:01:56.846Z,0.00
2024-01-06T00:02:56.857Z,0.00
2024-01-06T00:03:56.963Z,0.00
2024-01-06T00:04:56.817Z,0.00
2024-01-06T00:05:56.855Z,0.00
2024-01-06T00:06:56.869Z,0.00
2024-01-06T00:07:56.759Z,0.00
2024-01-06T00:08:56.740Z,0.00
2024-01-06T00:09:56.824Z,0.00
2024-01-06T00:10:56.722Z,0.00
2024-01-06T00:11:56.722Z,0.00
2024-01-06T00:12:56.725Z,0.00
2024-01-06T00:13:56.700Z,0.00
2024-01-06T00:14:56.683Z,0.00
2024-01-06T00:15:56.727Z,0.00
2024-01-06T00:16:56.677Z,0.00
2024-01-06T00:17:56.732Z,0.00
2024-01-06T00:18:56.755Z,0.00
2024-01-06T00:19:56.850Z,0.00
2024-01-06T00:20:56.592Z,0.00
2024-01-06T00:21:56.704Z,0.00
2024-01-06T00:22:56.563Z,0.00
2024-01-06T00:23:56.555Z,0.00
2024-01-06T00:24:56.647Z,0.00
2024-01-06T00:25:56.552Z,0.00
2024-01-06T00:26:56.525Z,0.00
2024-01-06T00:27:56.581Z,0.00
2024-01-06T00:28:56.517Z,0.00
2024-01-06T00:29:56.497Z,0.00
2024-01-06T00:30:56.519Z,0.00
2024-01-06T00:31:56.455Z,0.00
2024-01-06T00:32:56.560Z,0.00
2024-01-06T00:33:56.585Z,0.00
2024-01-06T00:34:56.435Z,0.00
2024-01-06T00:35:56.398Z,0.00
2024-01-06T00:36:56.413Z,0.00
2024-01-06T00:37:56.382Z,0.00
2024-01-06T00:38:56.373Z,0.00
2024-01-06T00:39:56.376Z,0.00
2024-01-06T00:40:56.476Z,0.00
2024-01-06T00:41:56.315Z,0.00
2024-01-06T00:42:56.504Z,0.00
2024-01-06T00:43:56.322Z,0.00
2024-01-06T00:44:56.282Z,0.00
2024-01-06T00:45:56.325Z,0.00
2024-01-06T00:46:56.283Z,0.00
2024-01-06T00:47:56.327Z,0.00
2024-01-06T00:48:56.334Z,0.00
2024-01-06T00:49:56.218Z,0.00
2024-01-06T00:50:56.214Z,0.00
2024-01-06T00:51:56.308Z,0.00
2024-01-06T00:52:56.200Z,0.00
2024-01-06T00:53:56.194Z,0.00
2024-01-06T00:54:56.153Z,0.00
2024-01-06T00:55:56.136Z,0.00
2024-01-06T00:56:58.367Z,0.00
2024-01-06T00:57:56.109Z,0.00
2024-01-06T00:58:56.110Z,0.00
2024-01-06T00:59:56.092Z,0.00
2024-01-06T01:00:56.228Z,0.00
2024-01-06T01:01:56.092Z,0.00
2024-01-06T01:02:56.064Z,0.00
2024-01-06T01:03:56.092Z,0.00
2024-01-06T01:04:56.118Z,0.00
2024-01-06T01:05:56.025Z,0.00
2024-01-06T01:06:56.070Z,0.00
2024-01-06T01:07:56.034Z,0.00
2024-01-06T01:08:55.988Z,0.00
2024-01-06T01:09:55.992Z,0.00
2024-01-06T01:10:55.964Z,0.00
2024-01-06T01:11:55.973Z,0.00
2024-01-06T01:12:56.025Z,0.00
2024-01-06T01:13:55.944Z,0.00
2024-01-06T01:14:55.912Z,0.00
2024-01-06T01:15:55.890Z,0.00
2024-01-06T01:16:55.887Z,0.00
2024-01-06T01:17:56.097Z,0.00
2024-01-06T01:18:55.970Z,0.00
2024-01-06T01:19:55.911Z,0.00
2024-01-06T01:20:55.820Z,0.00
2024-01-06T01:21:55.832Z,0.00
2024-01-06T01:22:55.832Z,0.00
2024-01-06T01:23:55.780Z,0.00
2024-01-06T01:24:55.775Z,0.00
2024-01-06T01:25:55.802Z,0.00
2024-01-06T01:26:55.783Z,0.00
2024-01-06T01:27:55.776Z,0.00
2024-01-06T01:28:55.715Z,0.00
2024-01-06T01:29:55.743Z,0.00
2024-01-06T01:30:55.789Z,0.00
2024-01-06T01:31:55.891Z,0.00
2024-01-06T01:32:55.723Z,0.00
2024-01-06T01:33:55.849Z,0.00
2024-01-06T01:34:55.757Z,0.00
2024-01-06T01:35:55.642Z,0.00
2024-01-06T01:36:55.621Z,0.00
2024-01-06T01:37:55.610Z,0.00
2024-01-06T01:38:55.606Z,0.00
2024-01-06T01:39:55.596Z,0.00
2024-01-06T01:40:55.579Z,0.00
2024-01-06T01:41:55.580Z,0.00
2024-01-06T01:42:55.561Z,0.00
2024-01-06T01:43:55.542Z,0.00
2024-01-06T01:44:55.546Z,0.00
2024-01-06T01:45:55.633Z,0.00
2024-01-06T01:46:55.505Z,0.00
2024-01-06T01:47:55.559Z,0.00
2024-01-06T01:48:55.622Z,0.00
2024-01-06T01:49:55.517Z,0.00
2024-01-06T01:50:55.492Z,0.00
2024-01-06T01:51:55.473Z,0.00
2024-01-06T01:52:55.428Z,0.00
2024-01-06T01:53:55.411Z,0.00
2024-01-06T01:54:55.487Z,0.00
2024-01-06T01:55:55.387Z,0.00
2024-01-06T01:56:55.412Z,0.00
2024-01-06T01:57:55.350Z,0.00
2024-01-06T01:58:55.357Z,0.00
2024-01-06T01:59:55.332Z,0.00
2024-01-06T02:00:55.467Z,0.00
2024-01-06T02:01:55.313Z,0.00
2024-01-06T02:02:55.360Z,0.00
2024-01-06T02:03:55.314Z,0.00
2024-01-06T02:04:55.290Z,0.00
2024-01-06T02:05:55.256Z,0.00
2024-01-06T02:06:55.300Z,0.00
2024-01-06T02:07:55.220Z,0.00
2024-01-06T02:08:55.233Z,0.00
2024-01-06T02:09:55.258Z,0.00
2024-01-06T02:10:55.181Z,0.00
2024-01-06T02:11:55.180Z,0.00
2024-01-06T02:12:55.244Z,0.00
2024-01-06T02:13:55.157Z,0.00
2024-01-06T02:14:55.148Z,0.00
2024-01-06T02:15:55.167Z,0.00
2024-01-06T02:16:55.133Z,0.00
2024-01-06T02:17:55.160Z,0.00
2024-01-06T02:18:55.194Z,0.00
2024-01-06T02:19:55.168Z,0.00
2024-01-06T02:20:55.075Z,0.00
2024-01-06T02:21:55.082Z,0.00
2024-01-06T02:22:55.026Z,0.00
2024-01-06T02:23:55.030Z,0.00
2024-01-06T02:24:55.051Z,0.00
2024-01-06T02:25:55.012Z,0.00
2024-01-06T02:26:54.986Z,0.00
2024-01-06T02:27:55.068Z,0.00
2024-01-06T02:28:54.987Z,0.00
2024-01-06T02:29:54.940Z,0.00
2024-01-06T02:30:54.993Z,0.00
2024-01-06T02:31:54.962Z,0.00
2024-01-06T02:32:55.016Z,0.00
2024-01-06T02:33:55.041Z,0.00
2024-01-06T02:34:54.947Z,0.00
2024-01-06T02:35:54.904Z,0.00
2024-01-06T02:36:54.881Z,0.00
2024-01-06T02:37:54.843Z,0.00
2024-01-06T02:38:54.833Z,0.00
2024-01-06T02:39:54.909Z,0.00
2024-01-06T02:40:54.820Z,0.00
2024-01-06T02:41:54.788Z,0.00
2024-01-06T02:42:54.812Z,0.00
2024-01-06T02:43:54.789Z,0.00
2024-01-06T02:44:54.766Z,0.00
2024-01-06T02:45:54.791Z,0.00
2024-01-06T02:46:54.717Z,0.00
2024-01-06T02:47:54.781Z,0.00
2024-01-06T02:48:54.853Z,0.00
2024-01-06T02:49:54.807Z,0.00
2024-01-06T02:50:54.679Z,0.00
2024-01-06T02:51:54.681Z,0.00
2024-01-06T02:52:54.651Z,0.00
2024-01-06T02:53:54.647Z,0.00
2024-01-06T02:54:54.690Z,0.00
2024-01-06T02:55:54.637Z,0.00
2024-01-06T02:56:54.595Z,0.00
2024-01-06T02:57:54.658Z,0.00
2024-01-06T02:58:54.580Z,0.00
2024-01-06T02:59:54.563Z,0.00
2024-01-06T03:00:54.636Z,0.00
2024-01-06T03:01:54.559Z,0.00
2024-01-06T03:02:54.534Z,0.00
2024-01-06T03:03:54.623Z,0.00
2024-01-06T03:04:54.493Z,0.00
2024-01-06T03:05:54.514Z,0.00
2024-01-06T03:06:54.895Z,0.00
2024-01-06T03:07:54.484Z,0.00
2024-01-06T03:08:54.451Z,0.00
2024-01-06T03:09:54.507Z,0.00
2024-01-06T03:10:54.434Z,0.00
2024-01-06T03:11:54.426Z,0.00
2024-01-06T03:12:54.452Z,0.00
2024-01-06T03:13:54.417Z,0.00
2024-01-06T03:14:54.381Z,0.00
2024-01-06T03:15:54.411Z,0.00
2024-01-06T03:16:54.359Z,0.00
2024-01-06T03:17:54.436Z,0.00
2024-01-06T03:18:54.424Z,0.00
2024-01-06T03:19:54.443Z,0.00
2024-01-06T03:20:54.311Z,0.00
2024-01-06T03:21:54.324Z,0.00
2024-01-06T03:22:54.276Z,0.00
2024-01-06T03:23:54.257Z,0.00
2024-01-06T03:24:54.299Z,0.00
2024-01-06T03:25:54.258Z,0.00
2024-01-06T03:26:54.218Z,0.00
2024-01-06T03:27:54.248Z,0.00
2024-01-06T03:28:54.193Z,0.00
2024-01-06T03:29:54.188Z,0.00
2024-01-06T03:30:54.312Z,0.00
2024-01-06T03:31:54.174Z,0.00
2024-01-06T03:32:54.183Z,0.00
2024-01-06T03:33:54.179Z,0.00
2024-01-06T03:34:54.176Z,0.00
2024-01-06T03:35:54.122Z,0.00
2024-01-06T03:36:54.141Z,0.00
2024-01-06T03:37:54.113Z,0.00
2024-01-06T03:38:54.076Z,0.00
2024-01-06T03:39:54.082Z,0.00
2024-01-06T03:40:54.042Z,0.00
2024-01-06T03:41:54.051Z,0.00
2024-01-06T03:42:54.039Z,0.00
2024-01-06T03:43:54.075Z,0.00
2024-01-06T03:44:54.021Z,0.00
2024-01-06T03:45:54.066Z,0.00
2024-01-06T03:46:53.978Z,0.00
2024-01-06T03:47:54.074Z,0.00
2024-01-06T03:48:54.122Z,0.00
2024-01-06T03:49:54.024Z,0.00
2024-01-06T03:50:53.998Z,0.00
2024-01-06T03:51:53.998Z,0.00
2024-01-06T03:52:53.903Z,0.00
2024-01-06T03:53:53.899Z,0.00
2024-01-06T03:54:53.898Z,0.00
2024-01-06T03:55:53.872Z,0.00
2024-01-06T03:56:53.838Z,0.00
2024-01-06T03:57:53.876Z,0.00
2024-01-06T03:58:53.821Z,0.00
2024-01-06T03:59:53.846Z,0.00
2024-01-06T04:00:53.839Z,0.00
2024-01-06T04:01:53.794Z,0.00
2024-01-06T04:02:53.763Z,0.00
2024-01-06T04:03:53.866Z,0.00
2024-01-06T04:04:53.769Z,0.00
2024-01-06T04:05:53.817Z,0.00
2024-01-06T04:06:53.760Z,0.00
2024-01-06T04:07:53.726Z,0.00
2024-01-06T04:08:53.694Z,0.00
2024-01-06T04:09:53.697Z,0.00
2024-01-06T04:10:53.689Z,0.00
2024-01-06T04:11:53.662Z,0.00
2024-01-06T04:12:53.648Z,0.00
2024-01-06T04:13:53.656Z,0.00
2024-01-06T04:14:53.627Z,0.00
2024-01-06T04:15:53.675Z,0.00
2024-01-06T04:16:53.597Z,0.00
2024-01-06T04:17:53.722Z,0.00
2024-01-06T04:18:53.714Z,0.00
2024-01-06T04:19:53.596Z,0.00
2024-01-06T04:20:53.534Z,0.00
2024-01-06T04:21:53.620Z,0.00
2024-01-06T04:22:53.517Z,0.00
2024-01-06T04:23:53.520Z,0.00
2024-01-06T04:24:53.600Z,0.00
2024-01-06T04:25:53.500Z,0.00
2024-01-06T04:26:53.460Z,0.00
2024-01-06T04:27:53.546Z,0.00
2024-01-06T04:28:53.439Z,0.00
2024-01-06T04:29:53.428Z,0.00
2024-01-06T04:30:53.523Z,0.00
2024-01-06T04:31:53.484Z,0.00
2024-01-06T04:32:53.527Z,0.00
2024-01-06T04:33:53.610Z,0.00
2024-01-06T04:34:53.346Z,0.00
2024-01-06T04:35:53.358Z,0.00
2024-01-06T04:36:53.391Z,0.00
2024-01-06T04:37:53.410Z,0.00
2024-01-06T04:38:53.319Z,0.00
2024-01-06T04:39:53.388Z,0.00
2024-01-06T04:40:53.304Z,0.00
2024-01-06T04:41:53.261Z,0.00
2024-01-06T04:42:53.442Z,0.00
2024-01-06T04:43:53.248Z,0.00
2024-01-06T04:44:53.216Z,0.00
2024-01-06T04:45:53.330Z,0.00
2024-01-06T04:46:53.235Z,0.00
2024-01-06T04:47:53.221Z,0.00
2024-01-06T04:48:53.249Z,0.00
2024-01-06T04:49:53.217Z,0.00
2024-01-06T04:50:53.145Z,0.00
2024-01-06T04:51:53.196Z,0.00
2024-01-06T04:52:53.125Z,0.00
2024-01-06T04:53:53.127Z,0.00
2024-01-06T04:54:53.176Z,0.00
2024-01-06T04:55:53.100Z,0.00
2024-01-06T04:56:53.073Z,0.00
2024-01-06T04:57:53.148Z,0.00
2024-01-06T04:58:53.050Z,0.00
2024-01-06T04:59:53.044Z,0.00
2024-01-06T05:00:53.191Z,0.00
2024-01-06T05:01:53.013Z,0.00
2024-01-06T05:02:53.050Z,0.00
2024-01-06T05:03:53.108Z,0.00
2024-01-06T05:04:53.033Z,0.00
2024-01-06T05:05:52.964Z,0.00
2024-01-06T05:06:53.058Z,0.00
2024-01-06T05:07:52.922Z,0.00
2024-01-06T05:08:52.911Z,0.00
2024-01-06T05:09:52.955Z,0.00
2024-01-06T05:10:52.912Z,0.00
2024-01-06T05:11:52.871Z,0.00
2024-01-06T05:12:52.991Z,0.00
2024-01-06T05:13:52.866Z,0.00
2024-01-06T05:14:52.856Z,0.00
2024-01-06T05:15:52.850Z,0.00
2024-01-06T05:16:52.838Z,0.00
2024-01-06T05:17:52.866Z,0.00
2024-01-06T05:18:52.989Z,0.00
2024-01-06T05:19:52.846Z,0.00
2024-01-06T05:20:52.782Z,0.00
2024-01-06T05:21:52.799Z,0.00
2024-01-06T05:22:52.757Z,0.00
2024-01-06T05:23:52.738Z,0.00
2024-01-06T05:24:52.797Z,0.00
2024-01-06T05:25:52.716Z,0.00
2024-01-06T05:26:52.696Z,0.00
2024-01-06T05:27:52.786Z,0.00
2024-01-06T05:28:52.682Z,0.00
2024-01-06T05:29:52.647Z,0.00
2024-01-06T05:30:52.719Z,0.00
2024-01-06T05:31:52.700Z,0.00
2024-01-06T05:32:52.689Z,0.00
2024-01-06T05:33:52.700Z,0.00
2024-01-06T05:34:52.669Z,0.00
2024-01-06T05:35:52.628Z,0.00
2024-01-06T05:36:52.598Z,0.00
2024-01-06T05:37:52.580Z,0.00
2024-01-06T05:38:53.607Z,0.00
2024-01-06T05:39:52.566Z,0.00
2024-01-06T05:40:52.531Z,0.00
2024-01-06T05:41:52.498Z,0.00
2024-01-06T05:42:52.640Z,0.00
2024-01-06T05:43:52.494Z,0.00
2024-01-06T05:44:52.465Z,0.00
2024-01-06T05:45:52.554Z,0.00
2024-01-06T05:46:52.440Z,0.00
2024-01-06T05:47:52.496Z,0.00
2024-01-06T05:48:52.669Z,0.00
2024-01-06T05:49:52.411Z,0.00
2024-01-06T05:50:52.409Z,0.00
2024-01-06T05:51:52.420Z,0.00
2024-01-06T05:52:52.378Z,0.00
2024-01-06T05:53:52.359Z,0.00
2024-01-06T05:54:52.569Z,0.00
2024-01-06T05:55:52.320Z,0.00
2024-01-06T05:56:52.332Z,0.00
2024-01-06T05:57:52.391Z,0.00
2024-01-06T05:58:52.298Z,0.00
2024-01-06T05:59:52.303Z,0.00
2024-01-06T06:00:52.438Z,0.00
2024-01-06T06:01:52.266Z,0.00
2024-01-06T06:02:52.285Z,0.00
2024-01-06T06:03:52.742Z,0.00
2024-01-06T06:04:52.233Z,0.00
2024-01-06T06:05:52.252Z,0.00
2024-01-06T06:06:52.331Z,0.00
2024-01-06T06:07:52.187Z,0.00
2024-01-06T06:08:52.185Z,0.00
2024-01-06T06:09:52.195Z,0.00
2024-01-06T06:10:52.179Z,0.00
2024-01-06T06:11:52.141Z,0.00
2024-01-06T06:12:52.215Z,0.00
2024-01-06T06:13:52.095Z,0.00
2024-01-06T06:14:52.092Z,0.00
2024-01-06T06:15:52.102Z,0.00
2024-01-06T06:16:52.072Z,0.00
2024-01-06T06:17:52.089Z,0.00
2024-01-06T06:18:52.153Z,0.00
2024-01-06T06:19:52.137Z,0.00
2024-01-06T06:20:52.030Z,0.00
2024-01-06T06:21:52.049Z,0.00
2024-01-06T06:22:51.986Z,0.00
2024-01-06T06:23:51.962Z,0.00
2024-01-06T06:24:52.121Z,0.00
2024-01-06T06:25:51.951Z,0.00
2024-01-06T06:26:51.926Z,0.00
2024-01-06T06:27:51.968Z,0.00
2024-01-06T06:28:51.904Z,0.00
2024-01-06T06:29:51.904Z,0.00
2024-01-06T06:30:51.973Z,0.00
2024-01-06T06:31:51.946Z,0.00
2024-01-06T06:32:51.923Z,0.00
2024-01-06T06:33:51.989Z,0.00
2024-01-06T06:34:52.004Z,0.00
2024-01-06T06:35:51.808Z,0.00
2024-01-06T06:36:51.955Z,0.00
2024-01-06T06:37:51.800Z,0.00
2024-01-06T06:38:51.776Z,0.00
2024-01-06T06:39:51.846Z,0.00
2024-01-06T06:40:51.750Z,0.00
2024-01-06T06:41:51.754Z,0.00
2024-01-06T06:42:51.868Z,0.00
2024-01-06T06:43:51.700Z,0.00
2024-01-06T06:44:51.699Z,0.00
2024-01-06T06:45:51.844Z,0.00
2024-01-06T06:46:51.687Z,0.00
2024-01-06T06:47:51.719Z,4.00
2024-01-06T06:48:51.762Z,4.00
2024-01-06T06:49:51.646Z,4.00
2024-01-06T06:50:51.643Z,0.00
2024-01-06T06:51:51.663Z,0.00
2024-01-06T06:52:51.631Z,4.00
2024-01-06T06:53:51.652Z,4.00
2024-01-06T06:54:51.697Z,4.00
2024-01-06T06:55:51.559Z,4.00
2024-01-06T06:56:51.560Z,8.00
2024-01-06T06:57:51.633Z,4.00
2024-01-06T06:58:51.543Z,8.00
2024-01-06T06:59:51.504Z,8.00
2024-01-06T07:00:51.677Z,8.00
2024-01-06T07:01:51.603Z,12.00
2024-01-06T07:02:51.488Z,8.00
2024-01-06T07:03:51.500Z,12.00
2024-01-06T07:04:51.462Z,12.00
2024-01-06T07:05:51.608Z,12.00
2024-01-06T07:06:51.535Z,16.00
2024-01-06T07:07:51.417Z,12.00
2024-01-06T07:08:51.421Z,16.00
2024-01-06T07:09:51.433Z,16.00
2024-01-06T07:10:51.386Z,20.00
2024-01-06T07:11:51.368Z,24.00
2024-01-06T07:12:51.432Z,24.00
2024-01-06T07:13:51.331Z,24.00
2024-01-06T07:14:51.340Z,28.00
2024-01-06T07:15:52.393Z,28.00
2024-01-06T07:16:51.327Z,32.00
2024-01-06T07:17:51.397Z,36.00
2024-01-06T07:18:51.355Z,40.00
2024-01-06T07:19:51.385Z,40.00
2024-01-06T07:20:51.266Z,44.00
2024-01-06T07:21:51.326Z,44.00
2024-01-06T07:22:51.235Z,48.00
2024-01-06T07:23:51.226Z,48.00
2024-01-06T07:24:51.324Z,48.00
2024-01-06T07:25:51.177Z,48.00
2024-01-06T07:26:51.169Z,52.00
2024-01-06T07:27:54.451Z,52.00
2024-01-06T07:28:51.153Z,52.00
2024-01-06T07:29:51.155Z,56.00
2024-01-06T07:30:51.208Z,56.00
2024-01-06T07:31:51.128Z,64.00
2024-01-06T07:32:51.150Z,68.00
2024-01-06T07:33:51.109Z,72.00
2024-01-06T07:34:51.110Z,76.00
2024-01-06T07:35:51.040Z,80.00
2024-01-06T07:36:51.076Z,88.00
2024-01-06T07:37:51.035Z,96.00
2024-01-06T07:38:51.024Z,96.00
2024-01-06T07:39:51.179Z,100.00
2024-01-06T07:40:50.994Z,104.00
2024-01-06T07:41:50.977Z,96.00
2024-01-06T07:42:51.092Z,100.00
2024-01-06T07:43:50.980Z,100.00
2024-01-06T07:44:50.953Z,108.00
2024-01-06T07:45:50.986Z,124.00
2024-01-06T07:46:50.913Z,120.00
2024-01-06T07:47:50.976Z,116.00
2024-01-06T07:48:50.963Z,136.00
2024-01-06T07:49:50.945Z,136.00
2024-01-06T07:50:50.857Z,132.00
2024-01-06T07:51:50.952Z,148.00
2024-01-06T07:52:50.850Z,136.00
2024-01-06T07:53:50.817Z,144.00
2024-01-06T07:54:50.895Z,148.00
2024-01-06T07:55:50.834Z,152.00
2024-01-06T07:56:50.792Z,160.00
2024-01-06T07:57:50.904Z,164.00
2024-01-06T07:58:50.764Z,168.00
2024-01-06T07:59:50.743Z,168.00
2024-01-06T08:00:50.807Z,172.00
2024-01-06T08:01:50.853Z,180.00
2024-01-06T08:02:50.711Z,200.00
2024-01-06T08:03:50.827Z,200.00
2024-01-06T08:04:50.762Z,200.00
2024-01-06T08:05:50.679Z,196.00
2024-01-06T08:06:52.901Z,196.00
2024-01-06T08:07:50.666Z,188.00
2024-01-06T08:08:50.617Z,184.00
2024-01-06T08:09:50.672Z,192.00
2024-01-06T08:10:50.608Z,196.00
2024-01-06T08:11:50.601Z,196.00
2024-01-06T08:12:50.632Z,184.00
2024-01-06T08:13:50.549Z,188.00
2024-01-06T08:14:50.567Z,200.00
2024-01-06T08:15:50.694Z,196.00
2024-01-06T08:16:50.569Z,188.00
2024-01-06T08:17:50.678Z,192.00
2024-01-06T08:18:50.638Z,188.00
2024-01-06T08:19:50.788Z,188.00
2024-01-06T08:20:50.493Z,200.00
2024-01-06T08:21:50.515Z,204.00
2024-01-06T08:22:50.467Z,204.00
2024-01-06T08:23:50.442Z,208.00
2024-01-06T08:24:50.438Z,232.00
2024-01-06T08:25:50.400Z,248.00
2024-01-06T08:26:50.398Z,244.00
2024-01-06T08:27:50.410Z,264.00
2024-01-06T08:28:50.400Z,256.00
2024-01-06T08:29:50.378Z,268.00
2024-01-06T08:30:50.453Z,276.00
2024-01-06T08:31:50.397Z,276.00
2024-01-06T08:32:50.422Z,300.00
2024-01-06T08:33:50.409Z,356.00
2024-01-06T08:34:50.372Z,388.00
2024-01-06T08:35:50.278Z,436.00
2024-01-06T08:36:50.377Z,492.00
2024-01-06T08:37:50.256Z,512.00
2024-01-06T08:38:50.281Z,532.00
2024-01-06T08:39:50.373Z,496.00
2024-01-06T08:40:50.312Z,516.00
2024-01-06T08:41:50.228Z,564.00
2024-01-06T08:42:50.283Z,620.00
2024-01-06T08:43:50.180Z,672.00
2024-01-06T08:44:50.207Z,672.00
2024-01-06T08:45:50.231Z,628.00
2024-01-06T08:46:50.151Z,692.00
2024-01-06T08:47:50.163Z,668.00
2024-01-06T08:48:50.235Z,640.00
2024-01-06T08:49:50.167Z,628.00
2024-01-06T08:50:50.101Z,628.00
2024-01-06T08:51:50.131Z,624.00
2024-01-06T08:52:50.111Z,604.00
2024-01-06T08:53:50.045Z,652.00
2024-01-06T08:54:50.096Z,596.00
2024-01-06T08:55:50.033Z,648.00
2024-01-06T08:56:50.053Z,600.00
2024-01-06T08:57:50.057Z,568.00
2024-01-06T08:58:49.992Z,540.00
2024-01-06T08:59:50.006Z,524.00
2024-01-06T09:00:50.034Z,488.00
2024-01-06T09:01:50.680Z,468.00
2024-01-06T09:02:50.012Z,468.00
2024-01-06T09:03:50.004Z,484.00
2024-01-06T09:04:49.910Z,512.00
2024-01-06T09:05:49.932Z,588.00
2024-01-06T09:06:49.931Z,592.00
2024-01-06T09:07:53.742Z,620.00
2024-01-06T09:08:49.879Z,640.00
2024-01-06T09:09:49.884Z,596.00
2024-01-06T09:10:49.845Z,604.00
2024-01-06T09:11:49.814Z,608.00
2024-01-06T09:12:49.866Z,636.00
2024-01-06T09:13:49.799Z,648.00
2024-01-06T09:14:49.779Z,660.00
2024-01-06T09:15:49.839Z,684.00
2024-01-06T09:16:49.759Z,700.00
2024-01-06T09:17:49.915Z,708.00
2024-01-06T09:18:49.843Z,716.00
2024-01-06T09:19:49.792Z,720.00
2024-01-06T09:20:49.719Z,680.00
2024-01-06T09:21:49.749Z,676.00
2024-01-06T09:22:49.676Z,644.00
2024-01-06T09:23:49.667Z,624.00
2024-01-06T09:24:49.711Z,624.00
2024-01-06T09:25:49.647Z,620.00
2024-01-06T09:26:49.631Z,644.00
2024-01-06T09:27:49.686Z,624.00
2024-01-06T09:28:49.635Z,608.00
2024-01-06T09:29:49.619Z,584.00
2024-01-06T09:30:49.643Z,536.00
2024-01-06T09:31:49.653Z,472.00
2024-01-06T09:32:49.614Z,416.00
2024-01-06T09:33:49.617Z,412.00
2024-01-06T09:34:49.622Z,388.00
2024-01-06T09:35:49.512Z,404.00
2024-01-06T09:36:49.510Z,412.00
2024-01-06T09:37:49.495Z,396.00
2024-01-06T09:38:49.487Z,400.00
2024-01-06T09:39:49.512Z,400.00
2024-01-06T09:40:49.532Z,400.00
2024-01-06T09:41:49.459Z,400.00
2024-01-06T09:42:49.461Z,376.00
2024-01-06T09:43:49.415Z,396.00
2024-01-06T09:44:49.414Z,404.00
2024-01-06T09:45:49.424Z,428.00
2024-01-06T09:46:49.381Z,432.00
2024-01-06T09:47:49.424Z,444.00
2024-01-06T09:48:49.492Z,468.00
2024-01-06T09:49:49.378Z,532.00
2024-01-06T09:50:49.342Z,584.00
2024-01-06T09:51:49.343Z,612.00
2024-01-06T09:52:49.289Z,612.00
2024-01-06T09:53:49.283Z,584.00
2024-01-06T09:54:49.336Z,616.00
2024-01-06T09:55:49.271Z,720.00
2024-01-06T09:56:49.276Z,692.00
2024-01-06T09:57:49.355Z,720.00
2024-01-06T09:58:49.264Z,812.00
2024-01-06T09:59:49.220Z,856.00
2024-01-06T10:00:49.241Z,772.00
2024-01-06T10:01:49.231Z,748.00
2024-01-06T10:02:49.170Z,760.00
2024-01-06T10:03:49.296Z,784.00
2024-01-06T10:04:49.234Z,744.00
2024-01-06T10:05:49.173Z,732.00
2024-01-06T10:06:49.141Z,780.00
2024-01-06T10:07:49.129Z,816.00
2024-01-06T10:08:49.113Z,852.00
2024-01-06T10:09:49.096Z,784.00
2024-01-06T10:10:49.062Z,756.00
2024-01-06T10:11:49.063Z,820.00
2024-01-06T10:12:49.107Z,828.00
2024-01-06T10:13:49.048Z,916.00
2024-01-06T10:14:49.021Z,912.00
2024-01-06T10:15:49.034Z,848.00
2024-01-06T10:16:48.996Z,876.00
2024-01-06T10:17:49.074Z,880.00
2024-01-06T10:18:53.512Z,884.00
2024-01-06T10:19:49.067Z,852.00
2024-01-06T10:20:48.933Z,852.00
2024-01-06T10:21:48.974Z,836.00
2024-01-06T10:22:48.925Z,908.00
2024-01-06T10:23:48.901Z,900.00
2024-01-06T10:24:49.042Z,964.00
2024-01-06T10:25:49.509Z,1068.00
2024-01-06T10:26:48.883Z,1068.00
2024-01-06T10:27:48.926Z,1088.00
2024-01-06T10:28:48.843Z,1040.00
2024-01-06T10:29:48.837Z,1080.00
2024-01-06T10:30:48.995Z,1104.00
2024-01-06T10:31:51.599Z,1040.00
2024-01-06T10:32:48.930Z,972.00
2024-01-06T10:33:48.991Z,976.00
2024-01-06T10:34:48.835Z,956.00
2024-01-06T10:35:48.742Z,948.00
2024-01-06T10:36:48.747Z,940.00
2024-01-06T10:37:48.759Z,944.00
2024-01-06T10:38:48.710Z,948.00
2024-01-06T10:39:48.718Z,944.00
2024-01-06T10:40:48.692Z,908.00
2024-01-06T10:41:48.684Z,968.00
2024-01-06T10:42:48.714Z,936.00
2024-01-06T10:43:48.651Z,908.00
2024-01-06T10:44:48.643Z,880.00
2024-01-06T10:45:48.656Z,896.00
2024-01-06T10:46:48.621Z,924.00
2024-01-06T10:47:48.672Z,972.00
2024-01-06T10:48:48.670Z,944.00
2024-01-06T10:49:48.654Z,944.00
2024-01-06T10:50:48.572Z,960.00
2024-01-06T10:51:48.605Z,972.00
2024-01-06T10:52:48.682Z,948.00
2024-01-06T10:53:48.555Z,944.00
2024-01-06T10:54:48.714Z,956.00
2024-01-06T10:55:48.495Z,936.00
2024-01-06T10:56:48.471Z,940.00
2024-01-06T10:57:48.546Z,932.00
2024-01-06T10:58:48.479Z,936.00
2024-01-06T10:59:48.464Z,924.00
2024-01-06T11:00:48.489Z,912.00
2024-01-06T11:01:48.527Z,956.00
2024-01-06T11:02:48.397Z,956.00
2024-01-06T11:03:48.605Z,940.00
2024-01-06T11:04:48.376Z,896.00
2024-01-06T11:05:48.415Z,856.00
2024-01-06T11:06:48.383Z,868.00
2024-01-06T11:07:48.373Z,876.00
2024-01-06T11:08:48.331Z,892.00
2024-01-06T11:09:48.394Z,916.00
2024-01-06T11:10:48.294Z,908.00
2024-01-06T11:11:48.289Z,864.00
2024-01-06T11:12:48.313Z,868.00
2024-01-06T11:13:48.301Z,856.00
2024-01-06T11:14:48.284Z,856.00
2024-01-06T11:15:48.296Z,856.00
2024-01-06T11:16:48.226Z,820.00
2024-01-06T11:17:48.305Z,796.00
2024-01-06T11:18:48.305Z,812.00
2024-01-06T11:19:48.268Z,824.00
2024-01-06T11:20:48.163Z,892.00
2024-01-06T11:21:48.199Z,932.00
2024-01-06T11:22:48.169Z,912.00
2024-01-06T11:23:48.150Z,884.00
2024-01-06T11:24:48.208Z,924.00
2024-01-06T11:25:48.102Z,932.00
2024-01-06T11:26:48.107Z,948.00
2024-01-06T11:27:48.130Z,964.00
2024-01-06T11:28:48.103Z,952.00
2024-01-06T11:29:48.053Z,880.00
2024-01-06T11:30:48.118Z,892.00
2024-01-06T11:31:48.126Z,928.00
2024-01-06T11:32:48.101Z,952.00
2024-01-06T11:33:48.074Z,920.00
2024-01-06T11:34:48.072Z,876.00
2024-01-06T11:35:47.974Z,900.00
2024-01-06T11:36:48.027Z,908.00
2024-01-06T11:37:47.950Z,928.00
2024-01-06T11:38:47.945Z,948.00
2024-01-06T11:39:47.986Z,936.00
2024-01-06T11:40:47.909Z,964.00
2024-01-06T11:41:47.902Z,1044.00
2024-01-06T11:42:47.991Z,1096.00
2024-01-06T11:43:47.892Z,1104.00
2024-01-06T11:44:47.870Z,1032.00
2024-01-06T11:45:47.887Z,932.00
2024-01-06T11:46:47.837Z,916.00
2024-01-06T11:47:47.933Z,884.00
2024-01-06T11:48:47.952Z,816.00
2024-01-06T11:49:47.855Z,824.00
2024-01-06T11:50:47.794Z,848.00
2024-01-06T11:51:47.820Z,868.00
2024-01-06T11:52:47.785Z,916.00
2024-01-06T11:53:47.766Z,904.00
2024-01-06T11:54:47.810Z,912.00
2024-01-06T11:55:47.718Z,892.00
2024-01-06T11:56:47.717Z,988.00
2024-01-06T11:57:47.731Z,936.00
2024-01-06T11:58:47.753Z,872.00
2024-01-06T11:59:47.687Z,944.00
2024-01-06T12:00:49.287Z,960.00
2024-01-06T12:01:47.735Z,964.00
2024-01-06T12:02:47.644Z,924.00
2024-01-06T12:03:47.733Z,888.00
2024-01-06T12:04:47.661Z,928.00
2024-01-06T12:05:47.625Z,920.00
2024-01-06T12:06:47.713Z,896.00
2024-01-06T12:07:47.588Z,944.00
2024-01-06T12:08:47.569Z,924.00
2024-01-06T12:09:47.563Z,872.00
2024-01-06T12:10:47.545Z,836.00
2024-01-06T12:11:47.540Z,808.00
2024-01-06T12:12:47.548Z,796.00
2024-01-06T12:13:47.499Z,820.00
2024-01-06T12:14:47.482Z,832.00
2024-01-06T12:15:47.552Z,804.00
2024-01-06T12:16:47.516Z,776.00
2024-01-06T12:17:47.474Z,812.00
2024-01-06T12:18:47.488Z,784.00
2024-01-06T12:19:47.494Z,728.00
2024-01-06T12:20:47.402Z,732.00
2024-01-06T12:21:47.458Z,688.00
2024-01-06T12:22:47.380Z,732.00
2024-01-06T12:23:47.384Z,728.00
2024-01-06T12:24:47.404Z,776.00
2024-01-06T12:25:47.346Z,772.00
2024-01-06T12:26:47.383Z,728.00
2024-01-06T12:27:47.403Z,676.00
2024-01-06T12:28:47.325Z,656.00
2024-01-06T12:29:47.290Z,664.00
2024-01-06T12:30:47.369Z,664.00
2024-01-06T12:31:47.425Z,668.00
2024-01-06T12:32:47.303Z,676.00
2024-01-06T12:33:47.346Z,708.00
2024-01-06T12:34:47.336Z,716.00
2024-01-06T12:35:47.232Z,692.00
2024-01-06T12:36:47.239Z,668.00
2024-01-06T12:37:47.217Z,636.00
2024-01-06T12:38:47.239Z,632.00
2024-01-06T12:39:47.202Z,600.00
2024-01-06T12:40:47.148Z,604.00
2024-01-06T12:41:47.139Z,620.00
2024-01-06T12:42:47.213Z,608.00
2024-01-06T12:43:47.113Z,588.00
2024-01-06T12:44:47.091Z,568.00
2024-01-06T12:45:47.172Z,572.00
2024-01-06T12:46:47.070Z,572.00
2024-01-06T12:47:47.144Z,604.00
2024-01-06T12:48:47.196Z,612.00
2024-01-06T12:49:47.216Z,612.00
2024-01-06T12:50:47.036Z,652.00
2024-01-06T12:51:47.096Z,636.00
2024-01-06T12:52:47.030Z,656.00
2024-01-06T12:53:47.016Z,644.00
2024-01-06T12:54:47.924Z,596.00
2024-01-06T12:55:46.958Z,636.00